createdAt,value
2024-05-09T00:00:57.419Z,70.60
2024-05-09T00:01:57.423Z,69.20
2024-05-09T00:02:57.469Z,75.10
2024-05-09T00:03:57.475Z,80.40
2024-05-09T00:04:57.452Z,78.00
2024-05-09T00:05:57.369Z,82.70
2024-05-09T00:06:57.407Z,90.50
2024-05-09T00:07:57.324Z,89.10
2024-05-09T00:08:57.320Z,88.00
2024-05-09T00:09:57.327Z,81.20
2024-05-09T00:10:57.435Z,84.60
2024-05-09T00:11:57.343Z,83.10
2024-05-09T00:12:57.290Z,84.90
2024-05-09T00:13:57.809Z,88.30
2024-05-09T00:14:57.222Z,88.00
2024-05-09T00:15:57.211Z,87.20
2024-05-09T00:16:57.229Z,89.90
2024-05-09T00:17:57.364Z,91.60
2024-05-09T00:18:57.225Z,91.90
2024-05-09T00:19:57.182Z,94.80
2024-05-09T00:20:57.158Z,90.70
2024-05-09T00:21:57.106Z,92.50
2024-05-09T00:22:57.163Z,95.90
2024-05-09T00:23:57.089Z,94.80
2024-05-09T00:24:57.087Z,90.40
2024-05-09T00:25:57.110Z,92.90
2024-05-09T00:26:57.108Z,97.90
2024-05-09T00:27:57.210Z,100.50
2024-05-09T00:28:57.102Z,103.20
2024-05-09T00:29:57.028Z,101.00
2024-05-09T00:30:56.990Z,95.20
2024-05-09T00:31:57.061Z,102.60
2024-05-09T00:32:57.064Z,100.70
2024-05-09T00:33:57.122Z,98.40
2024-05-09T00:34:57.008Z,102.80
2024-05-09T00:35:56.945Z,98.70
2024-05-09T00:36:56.932Z,100.70
2024-05-09T00:37:56.973Z,98.10
2024-05-09T00:38:56.892Z,93.50
2024-05-09T00:39:56.933Z,94.00
2024-05-09T00:40:56.929Z,95.00
2024-05-09T00:41:56.929Z,97.70
2024-05-09T00:42:56.861Z,94.10
2024-05-09T00:43:56.935Z,94.70
2024-05-09T00:44:56.829Z,98.90
2024-05-09T00:45:56.882Z,102.20
2024-05-09T00:46:56.840Z,103.50
2024-05-09T00:47:57.032Z,103.20
2024-05-09T00:48:56.979Z,99.00
2024-05-09T00:49:56.787Z,106.60
2024-05-09T00:50:56.771Z,108.10
2024-05-09T00:51:56.727Z,104.80
2024-05-09T00:52:56.783Z,106.60
2024-05-09T00:53:56.715Z,110.80
2024-05-09T00:54:56.724Z,105.10
2024-05-09T00:55:56.727Z,110.60
2024-05-09T00:56:56.846Z,119.90
2024-05-09T00:57:56.656Z,117.50
2024-05-09T00:58:56.661Z,111.80
2024-05-09T00:59:56.674Z,104.60
2024-05-09T01:00:56.652Z,107.40
2024-05-09T01:01:56.784Z,107.10
2024-05-09T01:02:56.690Z,110.30
2024-05-09T01:03:56.668Z,97.70
2024-05-09T01:04:56.730Z,98.40
2024-05-09T01:05:56.747Z,100.40
2024-05-09T01:06:56.531Z,99.90
2024-05-09T01:07:56.556Z,108.00
2024-05-09T01:08:56.495Z,103.20
2024-05-09T01:09:56.543Z,100.80
2024-05-09T01:10:56.636Z,105.90
2024-05-09T01:11:56.582Z,114.60
2024-05-09T01:12:56.495Z,117.90
2024-05-09T01:13:56.509Z,116.70
2024-05-09T01:14:56.454Z,121.20
2024-05-09T01:15:56.403Z,115.00
2024-05-09T01:16:56.500Z,119.10
2024-05-09T01:17:56.921Z,128.50
2024-05-09T01:18:56.555Z,124.20
2024-05-09T01:19:56.407Z,133.90
2024-05-09T01:20:56.360Z,123.80
2024-05-09T01:21:56.385Z,130.40
2024-05-09T01:22:56.361Z,132.80
2024-05-09T01:23:56.348Z,131.30
2024-05-09T01:24:56.363Z,136.70
2024-05-09T01:25:56.350Z,135.00
2024-05-09T01:26:56.322Z,130.20
2024-05-09T01:27:56.250Z,126.00
2024-05-09T01:28:56.334Z,125.50
2024-05-09T01:29:56.305Z,127.60
2024-05-09T01:30:56.189Z,132.10
2024-05-09T01:31:56.247Z,127.20
2024-05-09T01:32:56.430Z,131.00
2024-05-09T01:33:56.438Z,136.70
2024-05-09T01:34:56.190Z,132.40
2024-05-09T01:35:56.135Z,131.20
2024-05-09T01:36:56.131Z,125.10
2024-05-09T01:37:56.404Z,118.10
2024-05-09T01:38:56.112Z,124.10
2024-05-09T01:39:56.081Z,116.40
2024-05-09T01:40:56.409Z,121.50
2024-05-09T01:41:56.049Z,127.50
2024-05-09T01:42:56.057Z,123.10
2024-05-09T01:43:56.100Z,120.40
2024-05-09T01:44:56.039Z,119.70
2024-05-09T01:45:56.478Z,122.80
2024-05-09T01:46:56.067Z,123.90
2024-05-09T01:47:56.363Z,120.90
2024-05-09T01:48:56.020Z,121.00
2024-05-09T01:49:56.037Z,116.00
2024-05-09T01:50:55.975Z,126.10
2024-05-09T01:51:55.969Z,127.40
2024-05-09T01:52:55.961Z,135.00
2024-05-09T01:53:55.938Z,142.10
2024-05-09T01:54:55.954Z,143.10
2024-05-09T01:55:55.890Z,145.30
2024-05-09T01:56:55.874Z,144.40
2024-05-09T01:57:55.846Z,142.90
2024-05-09T01:58:55.878Z,147.40
2024-05-09T01:59:55.817Z,141.90
2024-05-09T02:00:55.874Z,149.00
2024-05-09T02:01:57.709Z,140.30
2024-05-09T02:02:55.852Z,143.40
2024-05-09T02:03:55.944Z,156.60
2024-05-09T02:04:55.883Z,154.10
2024-05-09T02:05:55.805Z,159.10
2024-05-09T02:06:55.773Z,155.10
2024-05-09T02:07:55.870Z,143.90
2024-05-09T02:08:56.091Z,132.60
2024-05-09T02:09:55.675Z,134.30
2024-05-09T02:10:55.837Z,135.60
2024-05-09T02:11:55.773Z,131.70
2024-05-09T02:12:55.691Z,129.10
2024-05-09T02:13:55.631Z,130.90
2024-05-09T02:14:55.669Z,133.10
2024-05-09T02:15:55.636Z,133.70
2024-05-09T02:16:55.612Z,134.10
2024-05-09T02:17:55.769Z,137.20
2024-05-09T02:18:55.636Z,130.40
2024-05-09T02:19:55.649Z,139.40
2024-05-09T02:20:55.622Z,147.40
2024-05-09T02:21:55.528Z,156.50
2024-05-09T02:22:55.516Z,153.90
2024-05-09T02:23:55.524Z,154.40
2024-05-09T02:24:55.501Z,145.70
2024-05-09T02:25:55.554Z,147.60
2024-05-09T02:26:55.469Z,146.20
2024-05-09T02:27:55.485Z,152.20
2024-05-09T02:28:55.485Z,147.40
2024-05-09T02:29:55.463Z,144.90
2024-05-09T02:30:55.472Z,138.60
2024-05-09T02:31:55.573Z,131.90
2024-05-09T02:32:55.471Z,137.20
2024-05-09T02:33:55.777Z,128.70
2024-05-09T02:34:55.425Z,134.90
2024-05-09T02:35:55.350Z,136.70
2024-05-09T02:36:55.340Z,139.40
2024-05-09T02:37:55.313Z,145.30
2024-05-09T02:38:55.320Z,135.20
2024-05-09T02:39:55.319Z,138.30
2024-05-09T02:40:55.321Z,141.70
2024-05-09T02:41:55.293Z,139.40
2024-05-09T02:42:55.240Z,147.30
2024-05-09T02:43:55.282Z,132.70
2024-05-09T02:44:55.283Z,133.50
2024-05-09T02:45:55.228Z,140.80
2024-05-09T02:46:55.510Z,145.20
2024-05-09T02:47:55.346Z,147.80
2024-05-09T02:48:55.364Z,151.10
2024-05-09T02:49:55.211Z,161.70
2024-05-09T02:50:55.202Z,166.40
2024-05-09T02:51:55.142Z,171.20
2024-05-09T02:52:55.201Z,172.40
2024-05-09T02:53:55.200Z,169.60
2024-05-09T02:54:55.083Z,178.20
2024-05-09T02:55:55.197Z,167.50
2024-05-09T02:56:55.074Z,160.10
2024-05-09T02:57:55.078Z,163.90
2024-05-09T02:58:55.063Z,172.50
2024-05-09T02:59:55.128Z,176.50
2024-05-09T03:00:55.050Z,174.80
2024-05-09T03:01:55.089Z,169.60
2024-05-09T03:02:55.137Z,175.80
2024-05-09T03:03:55.167Z,165.40
2024-05-09T03:04:55.038Z,174.10
2024-05-09T03:05:54.995Z,162.40
2024-05-09T03:06:55.005Z,169.10
2024-05-09T03:07:55.022Z,172.40
2024-05-09T03:08:54.898Z,182.70
2024-05-09T03:09:54.901Z,189.20
2024-05-09T03:10:54.916Z,187.90
2024-05-09T03:11:55.053Z,197.20
2024-05-09T03:12:54.863Z,192.30
2024-05-09T03:13:54.878Z,195.30
2024-05-09T03:14:54.850Z,200.20
2024-05-09T03:15:54.828Z,198.50
2024-05-09T03:16:54.850Z,213.30
2024-05-09T03:17:54.930Z,209.50
2024-05-09T03:18:54.883Z,218.80
2024-05-09T03:19:54.822Z,207.70
2024-05-09T03:20:54.699Z,204.10
2024-05-09T03:21:54.757Z,209.90
2024-05-09T03:22:56.765Z,212.40
2024-05-09T03:23:54.760Z,212.60
2024-05-09T03:24:54.700Z,214.00
2024-05-09T03:25:54.812Z,211.10
2024-05-09T03:26:54.646Z,215.70
2024-05-09T03:27:54.648Z,212.40
2024-05-09T03:28:54.722Z,211.40
2024-05-09T03:29:54.594Z,216.80
2024-05-09T03:30:54.598Z,213.20
2024-05-09T03:31:54.694Z,220.60
2024-05-09T03:32:54.662Z,222.00
2024-05-09T03:33:54.721Z,226.30
2024-05-09T03:34:54.557Z,227.00
2024-05-09T03:35:54.528Z,228.40
2024-05-09T03:36:54.541Z,229.00
2024-05-09T03:37:54.495Z,235.80
2024-05-09T03:38:54.505Z,237.30
2024-05-09T03:39:54.489Z,234.20
2024-05-09T03:40:54.488Z,236.60
2024-05-09T03:41:54.959Z,225.20
2024-05-09T03:42:54.409Z,228.70
2024-05-09T03:43:54.437Z,223.20
2024-05-09T03:44:54.396Z,214.70
2024-05-09T03:45:54.482Z,202.00
2024-05-09T03:46:54.399Z,177.90
2024-05-09T03:47:54.598Z,168.20
2024-05-09T03:48:54.458Z,167.20
2024-05-09T03:49:54.383Z,160.00
2024-05-09T03:50:54.370Z,148.20
2024-05-09T03:51:54.404Z,148.60
2024-05-09T03:52:54.359Z,146.90
2024-05-09T03:53:54.324Z,148.40
2024-05-09T03:54:54.271Z,149.30
2024-05-09T03:55:54.288Z,144.20
2024-05-09T03:56:54.205Z,146.40
2024-05-09T03:57:54.186Z,149.90
2024-05-09T03:58:54.264Z,146.70
2024-05-09T03:59:54.170Z,146.40
2024-05-09T04:00:54.219Z,148.50
2024-05-09T04:01:54.239Z,144.20
2024-05-09T04:02:54.276Z,143.20
2024-05-09T04:03:54.310Z,134.60
2024-05-09T04:04:54.286Z,133.80
2024-05-09T04:05:54.110Z,129.20
2024-05-09T04:06:54.080Z,141.70
2024-05-09T04:07:54.172Z,142.00
2024-05-09T04:08:54.087Z,131.10
2024-05-09T04:09:54.066Z,138.30
2024-05-09T04:10:54.111Z,134.20
2024-05-09T04:11:54.220Z,123.20
2024-05-09T04:12:54.047Z,125.70
2024-05-09T04:13:54.110Z,127.70
2024-05-09T04:14:53.978Z,125.80
2024-05-09T04:15:53.979Z,125.10
2024-05-09T04:16:53.975Z,122.80
2024-05-09T04:17:54.193Z,127.80
2024-05-09T04:18:53.983Z,122.40
2024-05-09T04:19:53.956Z,125.90
2024-05-09T04:20:53.968Z,134.10
2024-05-09T04:21:53.899Z,146.60
2024-05-09T04:22:53.933Z,147.30
2024-05-09T04:23:53.942Z,146.70
2024-05-09T04:24:53.988Z,152.40
2024-05-09T04:25:53.992Z,177.00
2024-05-09T04:26:54.114Z,162.30
2024-05-09T04:27:53.868Z,162.10
2024-05-09T04:28:53.871Z,168.60
2024-05-09T04:29:53.807Z,173.00
2024-05-09T04:30:53.808Z,172.30
2024-05-09T04:31:54.114Z,174.30
2024-05-09T04:32:53.884Z,174.50
2024-05-09T04:33:53.885Z,172.20
2024-05-09T04:34:53.739Z,171.30
2024-05-09T04:35:53.717Z,171.20
2024-05-09T04:36:53.695Z,190.60
2024-05-09T04:37:53.745Z,193.70
2024-05-09T04:38:53.648Z,192.00
2024-05-09T04:39:53.631Z,188.50
2024-05-09T04:40:53.740Z,178.20
2024-05-09T04:41:53.714Z,170.60
2024-05-09T04:42:53.600Z,181.40
2024-05-09T04:43:53.627Z,185.90
2024-05-09T04:44:56.519Z,184.00
2024-05-09T04:45:53.591Z,184.50
2024-05-09T04:46:53.581Z,183.20
2024-05-09T04:47:53.805Z,172.40
2024-05-09T04:48:54.695Z,172.00
2024-05-09T04:49:53.558Z,174.90
2024-05-09T04:50:53.553Z,164.10
2024-05-09T04:51:53.472Z,158.50
2024-05-09T04:52:53.503Z,149.20
2024-05-09T04:53:54.135Z,154.30
2024-05-09T04:55:00.098Z,160.50
2024-05-09T04:55:59.515Z,157.80
2024-05-09T04:56:59.471Z,151.00
2024-05-09T04:57:59.947Z,147.50
2024-05-09T04:58:59.693Z,153.30
2024-05-09T04:59:59.890Z,152.70
2024-05-09T05:00:59.554Z,154.00
2024-05-09T05:01:59.967Z,158.50
2024-05-09T05:02:53.709Z,150.30
2024-05-09T05:03:54.905Z,149.40
2024-05-09T05:04:53.493Z,146.00
2024-05-09T05:05:53.373Z,148.60
2024-05-09T05:06:53.287Z,149.50
2024-05-09T05:07:53.405Z,144.40
2024-05-09T05:08:53.287Z,132.20
2024-05-09T05:09:53.242Z,138.40
2024-05-09T05:10:53.387Z,122.80
2024-05-09T05:11:53.302Z,123.20
2024-05-09T05:12:53.209Z,117.90
2024-05-09T05:13:53.216Z,122.40
2024-05-09T05:14:53.211Z,126.00
2024-05-09T05:15:53.573Z,120.90
2024-05-09T05:16:53.174Z,109.80
2024-05-09T05:17:53.292Z,115.00
2024-05-09T05:18:53.334Z,107.90
2024-05-09T05:19:53.238Z,107.20
2024-05-09T05:20:53.183Z,105.90
2024-05-09T05:21:53.097Z,105.60
2024-05-09T05:22:53.125Z,100.80
2024-05-09T05:23:53.095Z,108.00
2024-05-09T05:24:53.044Z,102.50
2024-05-09T05:25:53.756Z,105.20
2024-05-09T05:26:53.294Z,102.90
2024-05-09T05:27:52.992Z,110.00
2024-05-09T05:28:53.272Z,107.70
2024-05-09T05:29:53.003Z,106.80
2024-05-09T05:30:53.017Z,106.20
2024-05-09T05:31:53.163Z,104.80
2024-05-09T05:32:53.036Z,110.60
2024-05-09T05:33:53.048Z,110.30
2024-05-09T05:34:52.991Z,118.80
2024-05-09T05:35:52.912Z,116.10
2024-05-09T05:36:52.895Z,124.80
2024-05-09T05:37:52.943Z,125.40
2024-05-09T05:38:52.892Z,125.90
2024-05-09T05:39:52.853Z,175.80
2024-05-09T05:40:52.938Z,136.10
2024-05-09T05:41:52.904Z,134.90
2024-05-09T05:42:52.801Z,131.20
2024-05-09T05:43:52.840Z,127.80
2024-05-09T05:44:52.799Z,135.20
2024-05-09T05:45:52.793Z,132.90
2024-05-09T05:46:52.809Z,137.60
2024-05-09T05:47:53.033Z,146.90
2024-05-09T05:48:52.750Z,164.70
2024-05-09T05:49:52.758Z,166.10
2024-05-09T05:50:52.767Z,162.70
2024-05-09T05:51:52.705Z,151.10
2024-05-09T05:52:52.716Z,154.00
2024-05-09T05:53:52.687Z,170.80
2024-05-09T05:54:52.703Z,162.40
2024-05-09T05:55:52.709Z,154.60
2024-05-09T05:56:52.727Z,164.60
2024-05-09T05:57:52.603Z,182.50
2024-05-09T05:58:52.655Z,199.20
2024-05-09T05:59:52.617Z,218.20
2024-05-09T06:00:52.658Z,186.80
2024-05-09T06:01:52.568Z,184.60
2024-05-09T06:02:52.756Z,190.70
2024-05-09T06:03:52.693Z,160.30
2024-05-09T06:04:52.723Z,192.50
2024-05-09T06:05:52.640Z,162.40
2024-05-09T06:06:52.507Z,138.90
2024-05-09T06:07:52.571Z,132.50
2024-05-09T06:08:52.664Z,145.30
2024-05-09T06:09:52.466Z,124.10
2024-05-09T06:10:52.984Z,127.20
2024-05-09T06:11:52.500Z,175.40
2024-05-09T06:12:52.401Z,211.10
2024-05-09T06:13:52.458Z,173.20
2024-05-09T06:14:52.393Z,161.20
2024-05-09T06:15:52.379Z,163.60
2024-05-09T06:16:54.095Z,153.90
2024-05-09T06:17:52.469Z,139.10
2024-05-09T06:18:52.524Z,138.80
2024-05-09T06:19:52.510Z,136.20
2024-05-09T06:20:52.364Z,138.50
2024-05-09T06:21:52.280Z,132.00
2024-05-09T06:22:52.397Z,127.30
2024-05-09T06:23:52.339Z,129.20
2024-05-09T06:24:52.253Z,127.50
2024-05-09T06:25:52.234Z,123.80
2024-05-09T06:26:52.216Z,123.80
2024-05-09T06:27:52.246Z,125.40
2024-05-09T06:28:52.298Z,125.20
2024-05-09T06:29:52.176Z,122.60
2024-05-09T06:30:52.173Z,125.50
2024-05-09T06:31:52.529Z,123.70
2024-05-09T06:32:52.444Z,121.70
2024-05-09T06:33:52.473Z,117.20
2024-05-09T06:34:52.232Z,120.70
2024-05-09T06:35:52.261Z,122.30
2024-05-09T06:36:52.141Z,117.50
2024-05-09T06:37:52.105Z,115.70
2024-05-09T06:38:52.063Z,114.90
2024-05-09T06:39:52.172Z,109.80
2024-05-09T06:40:52.101Z,117.20
2024-05-09T06:41:52.108Z,121.70
2024-05-09T06:42:52.011Z,110.20
2024-05-09T06:43:52.104Z,105.90
2024-05-09T06:44:52.091Z,107.00
2024-05-09T06:45:52.035Z,108.20
2024-05-09T06:46:52.091Z,98.10
2024-05-09T06:47:52.044Z,103.80
2024-05-09T06:48:52.161Z,102.50
2024-05-09T06:49:51.992Z,102.20
2024-05-09T06:50:52.208Z,100.70
2024-05-09T06:51:51.910Z,104.30
2024-05-09T06:52:51.906Z,97.60
2024-05-09T06:53:51.883Z,96.70
2024-05-09T06:54:51.876Z,107.50
2024-05-09T06:55:51.886Z,100.00
2024-05-09T06:56:51.877Z,101.40
2024-05-09T06:57:51.821Z,102.70
2024-05-09T06:58:51.941Z,99.50
2024-05-09T06:59:51.817Z,97.80
2024-05-09T07:00:51.929Z,103.70
2024-05-09T07:01:51.815Z,106.40
2024-05-09T07:02:51.872Z,94.20
2024-05-09T07:03:51.832Z,98.80
2024-05-09T07:04:51.840Z,95.70
2024-05-09T07:05:51.740Z,96.70
2024-05-09T07:06:51.692Z,92.70
2024-05-09T07:07:51.722Z,97.80
2024-05-09T07:08:52.656Z,97.00
2024-05-09T07:09:51.678Z,95.60
2024-05-09T07:10:51.796Z,95.30
2024-05-09T07:11:51.732Z,91.00
2024-05-09T07:12:51.624Z,93.50
2024-05-09T07:13:51.639Z,97.30
2024-05-09T07:14:51.678Z,98.20
2024-05-09T07:15:51.623Z,95.40
2024-05-09T07:16:51.625Z,96.60
2024-05-09T07:17:51.693Z,92.20
2024-05-09T07:18:51.774Z,97.50
2024-05-09T07:19:51.595Z,98.00
2024-05-09T07:20:51.553Z,96.10
2024-05-09T07:21:51.509Z,102.30
2024-05-09T07:22:51.572Z,105.50
2024-05-09T07:23:51.691Z,100.30
2024-05-09T07:24:51.482Z,103.40
2024-05-09T07:25:51.632Z,103.60
2024-05-09T07:26:51.458Z,98.00
2024-05-09T07:27:51.429Z,91.50
2024-05-09T07:28:51.525Z,102.70
2024-05-09T07:29:51.418Z,94.10
2024-05-09T07:30:51.619Z,99.20
2024-05-09T07:31:51.446Z,95.80
2024-05-09T07:32:51.687Z,104.10
2024-05-09T07:33:51.474Z,97.50
2024-05-09T07:34:51.407Z,100.00
2024-05-09T07:35:51.402Z,98.30
2024-05-09T07:36:51.298Z,95.30
2024-05-09T07:37:51.346Z,97.90
2024-05-09T07:38:51.360Z,100.70
2024-05-09T07:39:51.264Z,93.40
2024-05-09T07:40:51.338Z,96.30
2024-05-09T07:41:51.267Z,97.60
2024-05-09T07:42:51.319Z,102.60
2024-05-09T07:43:51.263Z,95.70
2024-05-09T07:44:51.204Z,97.90
2024-05-09T07:45:54.306Z,98.20
2024-05-09T07:47:52.334Z,104.60
2024-05-09T07:51:31.664Z,99.30
2024-05-09T07:53:37.247Z,104.30
2024-05-09T07:53:51.946Z,95.70
2024-05-09T07:54:23.369Z,88.60
2024-05-09T07:55:23.416Z,94.50
2024-05-09T07:56:24.298Z,90.80
2024-05-09T07:57:23.171Z,88.80
2024-05-09T07:58:23.143Z,90.60
2024-05-09T07:59:23.091Z,86.00
2024-05-09T08:00:29.763Z,87.10
2024-05-09T08:01:23.192Z,93.80
2024-05-09T08:02:23.266Z,90.30
2024-05-09T08:03:23.439Z,84.30
2024-05-09T08:04:25.235Z,85.90
2024-05-09T08:05:23.160Z,86.30
2024-05-09T08:06:23.011Z,91.50
2024-05-09T08:07:23.063Z,88.10
2024-05-09T08:08:22.975Z,89.20
2024-05-09T08:09:23.000Z,86.40
2024-05-09T08:10:27.459Z,90.00
2024-05-09T08:11:22.980Z,83.70
2024-05-09T08:12:22.933Z,89.00
2024-05-09T08:13:23.274Z,89.20
2024-05-09T08:14:22.940Z,82.10
2024-05-09T08:15:22.935Z,87.20
2024-05-09T08:16:23.084Z,86.60
2024-05-09T08:17:22.982Z,73.70
2024-05-09T08:18:22.971Z,91.40
2024-05-09T08:19:22.931Z,77.90
2024-05-09T08:20:30.670Z,80.70
2024-05-09T08:21:22.846Z,80.10
2024-05-09T08:22:22.786Z,79.50
2024-05-09T08:23:22.790Z,82.20
2024-05-09T08:24:22.830Z,76.90
2024-05-09T08:25:22.845Z,71.90
2024-05-09T08:26:22.743Z,71.10
2024-05-09T08:27:23.500Z,66.90
2024-05-09T08:28:22.803Z,69.20
2024-05-09T08:29:22.733Z,68.40
2024-05-09T08:30:29.781Z,64.40
2024-05-09T08:31:22.867Z,64.70
2024-05-09T08:32:22.712Z,60.80
2024-05-09T08:33:22.823Z,57.30
2024-05-09T08:34:22.874Z,56.00
2024-05-09T08:35:22.693Z,57.10
2024-05-09T08:36:22.629Z,56.80
2024-05-09T08:37:26.062Z,50.70
2024-05-09T08:38:22.645Z,54.60
2024-05-09T08:39:22.585Z,46.70
2024-05-09T08:40:30.685Z,51.50
2024-05-09T08:41:22.646Z,48.60
2024-05-09T08:42:22.635Z,48.40
2024-05-09T08:43:22.570Z,50.90
2024-05-09T08:44:22.492Z,52.60
2024-05-09T08:45:22.721Z,51.50
2024-05-09T08:46:22.555Z,59.60
2024-05-09T08:47:22.801Z,54.30
2024-05-09T08:48:22.616Z,49.40
2024-05-09T08:49:22.530Z,47.60
2024-05-09T08:50:31.983Z,43.00
2024-05-09T08:51:22.425Z,42.30
2024-05-09T08:52:22.408Z,45.40
2024-05-09T08:53:22.398Z,45.00
2024-05-09T08:54:22.427Z,43.50
2024-05-09T08:55:22.344Z,42.20
2024-05-09T08:56:22.353Z,43.00
2024-05-09T08:57:22.364Z,42.80
2024-05-09T08:58:22.393Z,41.60
2024-05-09T08:59:22.300Z,52.10
2024-05-09T09:00:33.356Z,42.30
2024-05-09T09:01:22.451Z,45.90
2024-05-09T09:02:22.512Z,49.70
2024-05-09T09:03:22.321Z,47.50
2024-05-09T09:04:22.317Z,46.40
2024-05-09T09:05:22.309Z,44.00
2024-05-09T09:06:22.270Z,41.70
2024-05-09T09:07:22.292Z,37.70
2024-05-09T09:08:22.192Z,34.20
2024-05-09T09:09:22.204Z,35.80
2024-05-09T09:10:29.593Z,36.40
2024-05-09T09:11:22.453Z,35.50
2024-05-09T09:12:22.146Z,48.50
2024-05-09T09:13:22.163Z,41.40
2024-05-09T09:14:22.111Z,41.30
2024-05-09T09:15:22.180Z,31.10
2024-05-09T09:16:22.125Z,25.00
2024-05-09T09:17:22.231Z,28.90
2024-05-09T09:18:22.143Z,29.80
2024-05-09T09:19:22.198Z,26.10
2024-05-09T09:20:28.750Z,43.20
2024-05-09T09:21:22.046Z,48.60
2024-05-09T09:22:22.062Z,50.50
2024-05-09T09:23:22.017Z,42.00
2024-05-09T09:24:22.015Z,43.80
2024-05-09T09:25:22.014Z,43.30
2024-05-09T09:26:21.943Z,39.80
2024-05-09T09:27:21.939Z,41.50
2024-05-09T09:28:22.009Z,37.90
2024-05-09T09:29:21.987Z,35.10
2024-05-09T09:30:34.056Z,35.90
2024-05-09T09:31:21.920Z,37.50
2024-05-09T09:32:22.044Z,32.10
2024-05-09T09:33:21.941Z,37.40
2024-05-09T09:34:21.949Z,37.70
2024-05-09T09:35:21.868Z,40.20
2024-05-09T09:36:21.957Z,41.90
2024-05-09T09:37:21.820Z,47.00
2024-05-09T09:38:22.402Z,45.90
2024-05-09T09:39:21.808Z,49.10
2024-05-09T09:40:22.439Z,45.40
2024-05-09T09:41:21.751Z,40.60
2024-05-09T09:42:21.729Z,47.00
2024-05-09T09:43:22.413Z,44.60
2024-05-09T09:44:21.728Z,40.00
2024-05-09T09:45:21.764Z,32.40
2024-05-09T09:46:21.724Z,31.60
2024-05-09T09:47:21.768Z,37.80
2024-05-09T09:48:22.182Z,35.40
2024-05-09T09:49:21.717Z,32.90
2024-05-09T09:50:27.878Z,39.90
2024-05-09T09:51:21.728Z,32.10
2024-05-09T09:52:21.751Z,28.50
2024-05-09T09:53:21.752Z,26.50
2024-05-09T09:54:21.600Z,32.50
2024-05-09T09:55:21.837Z,32.80
2024-05-09T09:56:21.582Z,29.30
2024-05-09T09:57:21.662Z,21.20
2024-05-09T09:58:21.643Z,16.50
2024-05-09T09:59:21.544Z,16.10
2024-05-09T10:00:27.121Z,14.30
2024-05-09T10:01:21.606Z,12.60
2024-05-09T10:02:21.683Z,17.10
2024-05-09T10:03:21.669Z,18.60
2024-05-09T10:04:21.522Z,19.20
2024-05-09T10:05:21.587Z,20.20
2024-05-09T10:06:21.500Z,31.30
2024-05-09T10:07:21.578Z,26.20
2024-05-09T10:08:21.410Z,28.00
2024-05-09T10:09:21.390Z,27.40
2024-05-09T10:10:29.854Z,34.60
2024-05-09T10:11:21.431Z,32.00
2024-05-09T10:12:21.386Z,40.30
2024-05-09T10:13:21.451Z,34.20
2024-05-09T10:14:21.375Z,35.50
2024-05-09T10:15:21.392Z,41.60
2024-05-09T10:16:21.547Z,34.40
2024-05-09T10:17:21.330Z,34.80
2024-05-09T10:18:21.377Z,36.50
2024-05-09T10:19:21.301Z,34.70
2024-05-09T10:20:25.043Z,26.20
2024-05-09T10:21:21.264Z,16.10
2024-05-09T10:22:21.280Z,12.50
2024-05-09T10:23:21.217Z,10.10
2024-05-09T10:24:21.228Z,18.70
2024-05-09T10:25:21.443Z,32.80
2024-05-09T10:26:21.170Z,34.30
2024-05-09T10:27:21.161Z,29.70
2024-05-09T10:28:21.172Z,25.90
2024-05-09T10:29:21.128Z,31.70
2024-05-09T10:30:26.002Z,25.80
2024-05-09T10:31:21.128Z,24.00
2024-05-09T10:32:21.187Z,21.80
2024-05-09T10:33:21.193Z,19.70
2024-05-09T10:34:21.251Z,14.60
2024-05-09T10:35:21.113Z,17.20
2024-05-09T10:36:21.030Z,12.80
2024-05-09T10:37:21.075Z,12.50
2024-05-09T10:38:21.021Z,13.90
2024-05-09T10:39:21.054Z,17.40
2024-05-09T10:40:26.473Z,22.40
2024-05-09T10:41:20.989Z,23.60
2024-05-09T10:42:20.961Z,20.50
2024-05-09T10:43:21.160Z,16.50
2024-05-09T10:44:20.946Z,18.20
2024-05-09T10:45:21.007Z,19.80
2024-05-09T10:46:21.216Z,22.80
2024-05-09T10:47:20.926Z,22.00
2024-05-09T10:48:21.042Z,19.90
2024-05-09T10:49:20.967Z,19.40
2024-05-09T10:50:28.090Z,18.70
2024-05-09T10:51:20.837Z,19.10
2024-05-09T10:52:20.919Z,19.60
2024-05-09T10:53:20.868Z,19.00
2024-05-09T10:54:20.847Z,18.40
2024-05-09T10:55:20.978Z,16.50
2024-05-09T10:56:20.784Z,16.20
2024-05-09T10:57:20.762Z,17.60
2024-05-09T10:58:20.784Z,18.20
2024-05-09T10:59:20.767Z,18.50
2024-05-09T11:00:27.587Z,16.70
2024-05-09T11:01:20.850Z,15.50
2024-05-09T11:02:20.980Z,16.90
2024-05-09T11:03:20.788Z,17.80
2024-05-09T11:04:20.920Z,15.90
2024-05-09T11:05:20.935Z,17.20
2024-05-09T11:06:20.653Z,19.20
2024-05-09T11:07:20.725Z,17.10
2024-05-09T11:08:20.656Z,17.60
2024-05-09T11:09:20.611Z,15.80
2024-05-09T11:10:27.430Z,17.50
2024-05-09T11:11:20.604Z,16.80
2024-05-09T11:12:21.399Z,17.30
2024-05-09T11:13:20.648Z,17.40
2024-05-09T11:14:20.554Z,17.10
2024-05-09T11:15:20.531Z,16.10
2024-05-09T11:16:26.574Z,17.10
2024-05-09T11:17:26.695Z,16.90
2024-05-09T11:18:28.161Z,16.50
2024-05-09T11:19:26.684Z,16.30
2024-05-09T11:20:29.666Z,16.30
2024-05-09T11:21:26.476Z,16.40
2024-05-09T11:22:26.511Z,16.50
2024-05-09T11:23:20.418Z,15.50
2024-05-09T11:24:26.489Z,15.90
2024-05-09T11:25:20.468Z,17.90
2024-05-09T11:26:20.546Z,15.80
2024-05-09T11:27:20.395Z,18.20
2024-05-09T11:28:20.444Z,14.80
2024-05-09T11:29:20.339Z,14.70
2024-05-09T11:30:27.018Z,14.40
2024-05-09T11:31:20.586Z,16.90
2024-05-09T11:32:20.390Z,16.10
2024-05-09T11:33:20.330Z,16.30
2024-05-09T11:34:20.384Z,15.80
2024-05-09T11:35:20.289Z,15.40
2024-05-09T11:36:20.352Z,15.70
2024-05-09T11:37:20.296Z,15.80
2024-05-09T11:38:20.223Z,16.40
2024-05-09T11:39:20.207Z,15.90
2024-05-09T11:40:25.496Z,16.20
2024-05-09T11:41:20.209Z,17.40
2024-05-09T11:42:20.233Z,16.10
2024-05-09T11:43:20.206Z,15.70
2024-05-09T11:44:20.176Z,15.60
2024-05-09T11:45:20.175Z,14.70
2024-05-09T11:46:20.315Z,14.10
2024-05-09T11:47:20.120Z,17.70
2024-05-09T11:48:20.338Z,14.80
2024-05-09T11:49:20.723Z,15.10
2024-05-09T11:50:27.127Z,17.40
2024-05-09T11:51:20.054Z,16.00
2024-05-09T11:52:20.113Z,15.80
2024-05-09T11:53:20.042Z,16.10
2024-05-09T11:54:20.027Z,16.30
2024-05-09T11:55:20.342Z,16.80
2024-05-09T11:56:20.088Z,16.80
2024-05-09T11:57:19.970Z,16.10
2024-05-09T11:58:20.025Z,16.90
2024-05-09T11:59:19.992Z,16.10
2024-05-09T12:00:29.145Z,17.40
2024-05-09T12:01:20.301Z,17.10
2024-05-09T12:02:19.938Z,17.50
2024-05-09T12:03:19.963Z,16.80
2024-05-09T12:04:20.028Z,17.80
2024-05-09T12:05:20.154Z,16.90
2024-05-09T12:06:19.880Z,16.40
2024-05-09T12:07:20.104Z,15.90
2024-05-09T12:08:19.855Z,17.00
2024-05-09T12:09:19.847Z,17.00
2024-05-09T12:10:22.671Z,17.20
2024-05-09T12:11:19.862Z,17.50
2024-05-09T12:12:19.794Z,17.50
2024-05-09T12:13:20.010Z,17.60
2024-05-09T12:14:19.775Z,17.00
2024-05-09T12:15:19.794Z,18.80
2024-05-09T12:16:20.066Z,19.40
2024-05-09T12:17:19.751Z,18.40
2024-05-09T12:18:19.758Z,18.10
2024-05-09T12:19:19.737Z,17.70
2024-05-09T12:20:28.358Z,16.90
2024-05-09T12:21:19.699Z,16.60
2024-05-09T12:22:19.735Z,19.10
2024-05-09T12:23:19.676Z,18.00
2024-05-09T12:24:19.625Z,18.40
2024-05-09T12:25:19.673Z,19.70
2024-05-09T12:26:19.593Z,19.10
2024-05-09T12:27:19.620Z,19.20
2024-05-09T12:28:19.836Z,17.90
2024-05-09T12:29:19.579Z,18.10
2024-05-09T12:30:32.181Z,21.20
2024-05-09T12:31:19.590Z,19.80
2024-05-09T12:32:19.590Z,18.40
2024-05-09T12:33:19.671Z,17.90
2024-05-09T12:34:19.558Z,19.40
2024-05-09T12:35:19.530Z,18.90
2024-05-09T12:36:20.400Z,20.00
2024-05-09T12:37:19.546Z,20.00
2024-05-09T12:38:19.677Z,19.60
2024-05-09T12:39:19.443Z,20.40
2024-05-09T12:40:26.783Z,22.40
2024-05-09T12:41:19.426Z,21.70
2024-05-09T12:42:27.031Z,21.00
2024-05-09T12:43:19.469Z,21.10
2024-05-09T12:44:19.372Z,21.00